createdAt,value
2019-01-29T00:02:05.431Z,2
2019-01-29T00:07:07.895Z,2
2019-01-29T00:12:10.352Z,2
2019-01-29T00:17:12.810Z,3
2019-01-29T00:22:15.310Z,2
2019-01-29T00:27:17.748Z,2
2019-01-29T00:32:20.244Z,2
2019-01-29T00:37:22.722Z,2
2019-01-29T00:42:25.151Z,2
2019-01-29T00:47:27.646Z,3
2019-01-29T00:52:30.077Z,2
2019-01-29T00:57:32.537Z,3
2019-01-29T01:02:35.006Z,2
2019-01-29T01:07:37.469Z,2
2019-01-29T01:12:39.930Z,2
2019-01-29T01:17:42.485Z,2
2019-01-29T01:22:50.604Z,2
2019-01-29T01:27:47.388Z,2
2019-01-29T01:32:49.845Z,2
2019-01-29T01:37:52.267Z,2
2019-01-29T01:42:54.777Z,2
2019-01-29T01:47:57.261Z,1
2019-01-29T01:52:59.734Z,1
2019-01-29T01:58:07.449Z,1
2019-01-29T02:03:04.595Z,1
2019-01-29T02:08:07.041Z,1
2019-01-29T02:13:09.524Z,1
2019-01-29T02:18:12.002Z,1
2019-01-29T02:23:14.461Z,1
2019-01-29T02:28:17.041Z,1
2019-01-29T02:33:19.370Z,1
2019-01-29T02:38:21.840Z,2
2019-01-29T02:43:24.313Z,2
2019-01-29T02:48:26.767Z,1
2019-01-29T02:53:29.233Z,2
2019-01-29T02:58:31.836Z,3
2019-01-29T03:03:34.161Z,2
2019-01-29T03:08:36.619Z,2
2019-01-29T03:13:39.092Z,2
2019-01-29T03:18:41.554Z,2
2019-01-29T03:23:43.999Z,3
2019-01-29T03:28:46.464Z,3
2019-01-29T03:33:48.954Z,3
2019-01-29T03:38:51.385Z,2
2019-01-29T03:43:53.891Z,3
2019-01-29T03:48:56.344Z,2
2019-01-29T03:53:58.785Z,2
2019-01-29T03:59:01.305Z,2
2019-01-29T04:04:03.719Z,2
2019-01-29T04:09:06.175Z,2
2019-01-29T04:14:08.692Z,2
2019-01-29T04:19:11.118Z,2
2019-01-29T04:24:13.563Z,2
2019-01-29T04:29:16.024Z,2
2019-01-29T04:34:18.632Z,3
2019-01-29T04:39:20.941Z,3
2019-01-29T04:44:23.418Z,3
2019-01-29T04:49:25.883Z,3
2019-01-29T04:54:28.339Z,3
2019-01-29T04:59:30.803Z,2
2019-01-29T05:04:33.307Z,2
2019-01-29T05:09:35.730Z,2
2019-01-29T05:14:38.256Z,2
2019-01-29T05:19:40.715Z,2
2019-01-29T05:24:43.112Z,2
2019-01-29T05:29:45.646Z,2
2019-01-29T05:34:48.329Z,2
2019-01-29T05:39:50.483Z,2
2019-01-29T05:44:53.038Z,3
2019-01-29T05:49:55.400Z,3
2019-01-29T05:54:57.946Z,3
2019-01-29T06:00:00.328Z,3
2019-01-29T06:05:02.802Z,2
2019-01-29T06:10:05.266Z,3
2019-01-29T06:15:07.732Z,4
2019-01-29T06:30:15.138Z,2
2019-01-29T06:35:17.645Z,2
2019-01-29T06:45:22.577Z,3
2019-01-29T06:50:24.948Z,3
2019-01-29T06:55:27.489Z,4
2019-01-29T07:00:29.869Z,3
2019-01-29T07:05:32.371Z,3
2019-01-29T07:10:34.797Z,2
2019-01-29T07:15:37.263Z,3
2019-01-29T07:20:39.737Z,2
2019-01-29T07:25:42.197Z,3
2019-01-29T07:30:44.823Z,1
2019-01-29T07:35:47.139Z,3
2019-01-29T07:45:52.020Z,2
2019-01-29T07:50:54.485Z,2
2019-01-29T07:55:56.937Z,2
2019-01-29T08:00:59.460Z,2
2019-01-29T08:06:01.868Z,2
2019-01-29T08:11:04.332Z,4
2019-01-29T08:16:06.816Z,4
2019-01-29T08:21:09.257Z,2
2019-01-29T08:26:11.720Z,2
2019-01-29T08:31:14.199Z,2
2019-01-29T08:36:16.657Z,2
2019-01-29T08:41:19.133Z,2
2019-01-29T08:46:23.315Z,2
2019-01-29T08:51:24.093Z,2
2019-01-29T08:56:26.511Z,2
2019-01-29T09:01:28.989Z,2
2019-01-29T09:06:31.443Z,3
2019-01-29T09:11:34.341Z,2
2019-01-29T09:16:36.401Z,2
2019-01-29T09:21:38.893Z,2
2019-01-29T09:26:41.327Z,2
2019-01-29T09:31:43.763Z,2
2019-01-29T09:36:46.349Z,2
2019-01-29T09:41:48.699Z,6
2019-01-29T09:46:51.163Z,2
2019-01-29T09:51:53.628Z,3
2019-01-29T09:56:56.102Z,2
2019-01-29T10:01:58.560Z,2
2019-01-29T10:07:01.016Z,2
2019-01-29T10:12:03.493Z,3
2019-01-29T10:17:05.977Z,2
2019-01-29T10:22:08.395Z,2
2019-01-29T10:27:10.865Z,2
2019-01-29T10:32:13.337Z,2
2019-01-29T10:37:15.854Z,2
2019-01-29T10:42:18.249Z,2
2019-01-29T10:47:20.723Z,2
2019-01-29T10:52:23.198Z,3
2019-01-29T10:57:25.676Z,2
2019-01-29T11:02:28.103Z,2
2019-01-29T11:07:30.552Z,3
2019-01-29T11:12:33.047Z,4
2019-01-29T11:17:35.460Z,3
2019-01-29T11:22:37.950Z,3
2019-01-29T11:27:40.386Z,3
2019-01-29T11:32:42.859Z,3
2019-01-29T11:37:45.319Z,3
2019-01-29T11:42:47.763Z,2
2019-01-29T11:47:50.269Z,3
2019-01-29T11:52:52.893Z,1
2019-01-29T11:57:55.186Z,4
2019-01-29T12:02:57.601Z,3
2019-01-29T12:08:00.059Z,3
2019-01-29T12:13:02.691Z,3
2019-01-29T12:18:04.985Z,2
2019-01-29T12:23:07.430Z,3
2019-01-29T12:28:09.882Z,4
2019-01-29T12:33:12.340Z,3
2019-01-29T12:38:14.803Z,3
2019-01-29T12:43:17.566Z,2
2019-01-29T12:48:19.726Z,2
2019-01-29T12:53:22.182Z,4
2019-01-29T12:58:24.627Z,3
2019-01-29T13:03:27.100Z,3
2019-01-29T13:08:29.551Z,3
2019-01-29T13:13:31.988Z,4
2019-01-29T13:18:34.479Z,5
2019-01-29T13:23:36.907Z,3
2019-01-29T13:28:39.414Z,5
2019-01-29T13:33:41.820Z,3
2019-01-29T13:38:44.276Z,3
2019-01-29T13:43:46.754Z,4
2019-01-29T13:48:49.196Z,3
2019-01-29T13:53:51.644Z,4
2019-01-29T13:58:54.112Z,2
2019-01-29T14:03:56.568Z,4
2019-01-29T14:08:59.030Z,4
2019-01-29T14:14:01.488Z,6
2019-01-29T14:19:03.959Z,4
2019-01-29T14:24:06.391Z,3
2019-01-29T14:29:08.847Z,4
2019-01-29T14:34:11.359Z,3
2019-01-29T14:39:13.770Z,3
2019-01-29T14:44:16.285Z,3
2019-01-29T14:49:18.723Z,2
2019-01-29T14:54:21.135Z,3
2019-01-29T14:59:23.590Z,3
2019-01-29T15:04:26.054Z,3
2019-01-29T15:09:28.557Z,4
2019-01-29T15:14:30.988Z,3
2019-01-29T15:19:33.433Z,4
2019-01-29T15:24:35.894Z,4
2019-01-29T15:29:38.353Z,4
2019-01-29T15:34:40.825Z,4
2019-01-29T15:39:43.290Z,6
2019-01-29T15:44:45.745Z,13
2019-01-29T15:49:48.225Z,11
2019-01-29T15:54:50.970Z,10
2019-01-29T15:59:53.157Z,5
2019-01-29T16:04:55.602Z,9
2019-01-29T16:09:58.134Z,19
2019-01-29T16:15:00.519Z,6
2019-01-29T16:20:03.030Z,4
2019-01-29T16:25:05.451Z,11
2019-01-29T16:30:07.919Z,6
2019-01-29T16:35:10.380Z,19
2019-01-29T16:40:12.852Z,26
2019-01-29T16:45:15.378Z,6
2019-01-29T16:50:17.750Z,10
2019-01-29T16:55:20.232Z,18
2019-01-29T17:00:22.673Z,19
2019-01-29T17:05:25.153Z,16
2019-01-29T17:10:27.601Z,12
2019-01-29T17:15:30.081Z,11
2019-01-29T17:20:32.597Z,26
2019-01-29T17:25:34.981Z,20
2019-01-29T17:30:37.455Z,10
2019-01-29T17:35:39.913Z,8
2019-01-29T17:40:42.344Z,18
2019-01-29T17:45:44.833Z,15
2019-01-29T17:50:47.581Z,13
2019-01-29T17:55:49.748Z,13
2019-01-29T18:00:52.197Z,10
2019-01-29T18:05:54.659Z,13
2019-01-29T18:10:57.109Z,11
2019-01-29T18:15:59.576Z,11
2019-01-29T18:21:02.057Z,13
2019-01-29T18:26:04.494Z,10
2019-01-29T18:31:06.951Z,10
2019-01-29T18:36:09.419Z,11
2019-01-29T18:41:11.888Z,8
2019-01-29T18:46:14.542Z,10
2019-01-29T18:51:16.848Z,8
2019-01-29T18:56:19.247Z,9
2019-01-29T19:01:21.699Z,9
2019-01-29T19:06:24.416Z,10
2019-01-29T19:11:26.665Z,9
2019-01-29T19:16:29.148Z,9
2019-01-29T19:21:31.554Z,9
2019-01-29T19:26:34.010Z,11
2019-01-29T19:31:36.453Z,12
2019-01-29T19:36:38.899Z,9
2019-01-29T19:41:41.440Z,9
2019-01-29T19:46:43.865Z,9
2019-01-29T19:51:48.884Z,9
2019-01-29T19:56:48.744Z,9
2019-01-29T20:01:51.211Z,7
2019-01-29T20:06:53.651Z,8
2019-01-29T20:11:56.100Z,6
2019-01-29T20:16:58.566Z,5
2019-01-29T20:22:01.062Z,7
2019-01-29T20:27:03.474Z,5
2019-01-29T20:32:05.926Z,7
2019-01-29T20:37:08.391Z,5
2019-01-29T20:42:10.858Z,5
2019-01-29T20:47:13.312Z,5
2019-01-29T20:52:15.825Z,7
2019-01-29T20:57:18.253Z,11
2019-01-29T21:02:20.706Z,12
2019-01-29T21:07:23.207Z,11
2019-01-29T21:12:25.620Z,8
2019-01-29T21:17:28.049Z,6
2019-01-29T21:22:30.493Z,7
2019-01-29T21:27:32.994Z,6
2019-01-29T21:32:35.452Z,5
2019-01-29T21:37:37.895Z,6
2019-01-29T21:42:40.346Z,7
2019-01-29T21:47:42.778Z,6
2019-01-29T21:52:45.237Z,7
2019-01-29T21:57:47.685Z,6
2019-01-29T22:02:50.171Z,5
2019-01-29T22:07:52.625Z,5
2019-01-29T22:12:55.080Z,6
2019-01-29T22:17:57.599Z,6
2019-01-29T22:22:59.979Z,7
2019-01-29T22:28:02.515Z,6
2019-01-29T22:33:04.878Z,6
2019-01-29T22:38:07.355Z,6
2019-01-29T22:43:09.844Z,6
2019-01-29T22:48:12.265Z,6
2019-01-29T22:53:14.745Z,5
2019-01-29T22:58:17.195Z,6
2019-01-29T23:03:19.645Z,7
2019-01-29T23:08:22.079Z,8
2019-01-29T23:13:24.563Z,7
2019-01-29T23:18:26.999Z,6
2019-01-29T23:23:29.465Z,5
2019-01-29T23:28:31.913Z,6
2019-01-29T23:33:34.365Z,7
2019-01-29T23:38:36.844Z,7
2019-01-29T23:43:39.283Z,7
2019-01-29T23:48:41.794Z,5
2019-01-29T23:53:44.202Z,7
2019-01-29T23:58:46.658Z,6
